x

Waukegan Harbor, Il (whri2) Weather Station

2:40pm - Wed 23rd Jul 2014 All times are CDT. -5 hours from GMT.

  • Wind
    17mph, 22mph gusts
  • Air Temp 62°f
  • Sea Pressure 1022.4mb
  • Waukegan Harbor, Il
  • Waukegan Harbor, Il

More Historic Weather Station data

Upgrade to MSW Pro to gain access to the past 30 days of data for over 8000 Wavebouys and Weather Stations around the globe.

Join Pro

Comparision Forecast

View Surf forecast
   
Wed 07/23 2:40pm 17 22 mph 1022.4mb 62f
2:30pm 20 23 mph 1022.4mb 62f
2:20pm 21 23 mph 1022.4mb 62f
2:10pm 21 23 mph 1022.7mb 61f
2:00pm 22 25 mph 1022.7mb 62f
1:40pm 24 26 mph 1022.7mb 61f
1:30pm 24 26 mph 1022.7mb 62f
1:20pm 22 24 mph 1022.7mb 62f
1:10pm 20 24 mph 1022.7mb 61f
1:00pm 22 25 mph 1022.7mb 62f
12:40pm 21 26 mph 1022.7mb 62f
12:30pm 21 26 mph 1022.7mb 62f
12:20pm 22 26 mph 1022.7mb 61f
12:10pm 24 29 mph 1022.4mb 62f
12:00pm 23 28 mph 1022.4mb 62f
11:41am 23
mph
1022.4mb 62f
11:40am 23 28 mph 1022.7mb 62f
11:30am 23 29 mph 1022.4mb 61f
11:20am 26 29 mph 1022.4mb 61f
11:10am 26 31 mph 1022.4mb 61f
11:00am 28 36 mph 1022.4mb 62f
10:48am 29 31 mph 1021.7mb 62f
10:40am 23 29 mph 1022.4mb 63f
10:30am 24 30 mph 1022.4mb 62f
10:20am 28 31 mph 1022mb 62f
10:10am 23 31 mph 1022.4mb 62f
10:00am 24 29 mph 1022.7mb 62f
9:47am 25 29 mph 1022mb 62f
9:40am 25 31 mph 1022mb 62f
9:30am 22 30 mph 1022.7mb 62f
9:20am 23 30 mph 1022mb 62f
9:10am 22 29 mph 1022mb 62f
9:00am 23 31 mph 1022mb 62f
8:47am 25 29 mph 1021.7mb 62f
8:40am 23 29 mph 1022mb 62f
8:30am 22 30 mph 1022mb 62f
8:20am 25 31 mph 1021.3mb 62f
8:10am 25 31 mph 1021.3mb 62f
8:00am 26 31 mph 1021mb 62f
7:46am 23 31 mph 1020.7mb 62f
7:40am 22 30 mph 1021mb 62f
7:30am 23 34 mph 1021mb 62f
7:20am 25 32 mph 1020.7mb 62f
7:10am 22 29 mph 1021mb 62f
7:00am 24 30 mph 1020.7mb 62f
6:43am 24 30 mph 1020.3mb 62f
6:40am 23 30 mph 1020.7mb 62f
6:30am 22 30 mph 1020.7mb 62f
6:20am 23 29 mph 1020.7mb 62f
6:10am 20 30 mph 1021mb 62f
6:00am 24 30 mph 1020.7mb 62f
5:40am 22 30 mph 1020.7mb 62f
5:30am 24 31 mph 1020.3mb 62f
5:20am 22 30 mph 1020mb 62f
5:10am 24 29 mph 1019.6mb 62f
5:00am 21 26 mph 1019.6mb 63f
4:40am 20 26 mph 1019.6mb 63f
4:30am 22 29 mph 1019mb 63f
4:29am 22 29 mph 1019mb 63f
4:20am 25 31 mph 1019mb 63f
4:10am 23 33 mph 1019mb 63f
4:00am 24 30 mph 1018.6mb 63f
3:40am 22 28 mph 1019mb 63f
3:30am 23 32 mph 1019.3mb 63f
3:20am 24 30 mph 1019.3mb 64f
3:10am 21 28 mph 1019.3mb 63f
3:00am 23 32 mph 1019mb 64f
2:40am 24 32 mph 1019mb 62f
2:30am 28 34 mph 1018.6mb 63f
2:20am 26 32 mph 1018.6mb 63f
2:19am 28 30 mph 1018.6mb 63f
2:10am 30 37 mph 1018.6mb 63f
2:00am 26 32 mph 1018.3mb 63f
1:40am 25 31 mph 1018.6mb 63f
1:30am 25 30 mph 1018.6mb 63f
1:20am 25 33 mph 1018.6mb 63f
1:18am 25 29 mph 1018.6mb 64f
1:10am 26 31 mph 1018.6mb 64f
1:00am 26 31 mph 1017.9mb 64f
12:40am 29 34 mph 1017.6mb 65f
12:30am 30 34 mph 1017.3mb 67f
12:20am 28 31 mph 1017.3mb 69f
12:15am 25 29 mph 1017.3mb 69f
12:10am 24 28 mph 1017.3mb 68f
12:00am 24 29 mph 1017.3mb 67f
Tue 07/22 11:40pm 30 34 mph 1015.9mb 70f
11:30pm 30 36 mph 1016.3mb 72f
11:20pm 28 36 mph 1015.9mb 74f
11:10pm 21 29 mph 1015.6mb 74f
11:00pm 9 17 mph 1015.2mb 73f
10:40pm 18 22 mph 1015.6mb 76f
10:30pm 9 10 mph 1015.2mb 78f
10:20pm 7 26 mph 1014.9mb 77f
10:10pm 22 34 mph 1014.2mb 82f
10:09pm 13 34 mph 1013.5mb 83f
10:00pm 13 16 mph 1013.5mb 83f
9:40pm 13 15 mph 1013.9mb 83f
9:30pm 11 17 mph 1013.9mb 83f
9:20pm 15 17 mph 1013.9mb 83f
9:10pm 11 15 mph 1014.2mb 84f
9:00pm 11 16 mph 1013.9mb 84f
8:40pm 10 13 mph 1014.2mb 84f
8:30pm 10 13 mph 1014.2mb 85f
8:20pm 10 13 mph 1014.2mb 85f
8:10pm 10 15 mph 1014.2mb 85f
8:00pm 10 13 mph 1014.2mb 85f
7:40pm 6 9 mph 1014.2mb 86f
7:30pm 9 13 mph 1014.6mb 86f
7:20pm 8 11 mph 1014.6mb 87f
7:10pm 9 15 mph 1014.6mb 86f
7:00pm 8 17 mph 1014.6mb 86f
6:40pm 10 17 mph 1014.2mb 87f
6:30pm 11 15 mph 1014.2mb 86f
6:20pm 13 17 mph 1013.9mb 87f
6:10pm 15 18 mph 1013.9mb 86f
6:00pm 11 15 mph 1013.9mb 86f
5:40pm 16 21 mph 1013.9mb 86f
5:30pm 17 20 mph 1013.9mb 86f
5:20pm 17 22 mph 1013.9mb 86f
5:10pm 15 20 mph 1013.9mb 86f
5:02pm 14 26 mph 1013.9mb 86f
5:00pm 15 20 mph 1013.9mb 86f
4:40pm 17 23 mph 1014.2mb 86f
4:30pm 15 24 mph 1014.2mb 86f
4:20pm 18 26 mph 1014.2mb 86f
4:10pm 16 22 mph 1014.2mb 86f
4:02pm 15 25 mph 1014.2mb 86f
4:00pm 18 23 mph 1013.9mb 86f
3:40pm 20 23 mph 1013.5mb 86f
3:30pm 21 25 mph 1013.2mb 87f
3:20pm 17 22 mph 1013.5mb 86f
3:10pm 20 25 mph 1013.2mb 86f
3:02pm 17 25 mph 1012.9mb 85f
3:00pm 18 23 mph 1013.2mb 85f
2:50pm 20 25 mph 1013.2mb 86f
2:40pm 21 25 mph 1013.5mb 86f
2:30pm 18 24 mph 1013.5mb 86f
2:20pm 20 24 mph 1013.5mb 86f
2:10pm 21 24 mph 1013.9mb 85f
2:01pm 16 26 mph 1014.2mb 86f
2:00pm 16 24 mph 1014.2mb 86f
1:50pm 20 25 mph 1013.9mb 85f
1:40pm 22 25 mph 1014.2mb 85f
1:30pm 20 26 mph 1014.6mb 85f
1:20pm 22 25 mph 1014.2mb 84f
1:10pm 15 24 mph 1014.9mb 84f
1:01pm 14 23 mph 1014.9mb 82f
1:00pm 14 23 mph 1014.9mb 82f
12:50pm 16 21 mph 1014.9mb 83f
12:40pm 18 22 mph 1015.2mb 80f
12:30pm 18 25 mph 1014.9mb 82f
12:20pm 21 24 mph 1015.2mb 81f
12:10pm 18 25 mph 1015.6mb 82f
12:00pm 22 31 mph 1015.9mb 82f
11:50am 15 30 mph 1015.9mb 82f
11:41am 22 30 mph 1015.2mb 82f
11:40am 22 26 mph 1015.6mb 82f
11:30am 18 25 mph 1015.9mb 82f
11:20am 14 26 mph 1015.9mb 81f
11:10am 17 22 mph 1015.6mb 80f
11:00am 15 24 mph 1016.3mb 80f
10:50am 16 25 mph 1015.9mb 81f
10:40am 18 24 mph 1015.9mb 80f
10:30am 20 22 mph 1015.9mb 80f
10:20am 18 23 mph 1015.6mb 79f
10:10am 17 26 mph 1015.6mb 80f
10:00am 23 28 mph 1015.9mb 79f
9:50am 17 22 mph 1016.3mb 79f
9:40am 13 22 mph 1016.3mb 78f
9:30am 15 21 mph 1016.6mb 78f
9:20am 16 18 mph 1016.3mb 76f
9:10am 14 20 mph 1016.6mb 76f
9:00am 15 18 mph 1016.6mb 76f
8:50am 13 18 mph 1016.9mb 75f
8:40am 15 21 mph 1016.6mb 74f
8:30am 16 21 mph 1016.6mb 74f
8:20am 14 18 mph 1016.6mb 74f
8:10am 14 16 mph 1017.3mb 72f
8:00am 14 18 mph 1017.3mb 73f
7:50am 16 17 mph 1017.3mb 72f
7:40am 16
mph
1017.3mb 72f
7:30am 15 16 mph 1017.3mb 72f
7:20am 14 15 mph 1017.9mb 71f
7:10am 13 14 mph 1017.9mb 70f
7:00am 13 15 mph 1017.9mb 70f
6:50am 14 15 mph 1017.9mb 69f
6:40am 13 14 mph 1018.3mb 68f
6:30am 10 13 mph 1018.3mb 67f
6:20am 10 13 mph 1018.3mb 68f
6:10am 11 13 mph 1018.3mb 68f
6:00am 11
mph
1018.3mb 67f
5:50am 10
mph
1018.3mb 67f
5:40am 8 9 mph 1018.3mb 68f
5:30am 8 10 mph 1018.3mb 67f
5:20am 9 10 mph 1018.3mb 66f
5:10am 9 10 mph 1018.3mb 66f
5:00am 10 11 mph 1018.3mb 67f
4:50am 11 13 mph 1018.3mb 67f
4:40am 10 11 mph 1017.9mb 67f
4:30am 11 13 mph 1017.9mb 67f
4:20am 13 14 mph 1017.9mb 68f
4:10am 13 14 mph 1017.9mb 67f
4:00am 10 11 mph 1017.9mb 68f
3:50am 9 13 mph 1017.9mb 71f
3:40am 9 11 mph 1018.3mb 69f
3:30am 9 11 mph 1018.3mb 68f
3:20am 10 11 mph 1017.9mb 67f
3:10am 10 11 mph 1018.3mb 68f
3:00am 9 11 mph 1018.3mb 69f
2:50am 9 10 mph 1018.3mb 68f
2:40am 9 10 mph 1018.3mb 68f
2:30am 9
mph
1018.3mb 69f
2:20am 8 9 mph 1018.3mb 68f
2:10am 8
mph
1018.6mb 68f
2:00am 7
mph
1018.6mb 68f
1:50am 7 8 mph 1019mb 68f
1:40am 8 9 mph 1018.6mb 67f
1:30am 9
mph
1018.6mb 68f
1:20am 8 9 mph 1018.6mb 70f
1:10am 8
mph
1018.6mb 70f
1:00am 8
mph
1018.6mb 69f
12:50am 8
mph
1018.6mb 68f
12:40am 8
mph
1018.6mb 70f
12:30am 8
mph
1018.6mb 68f
12:20am 7
mph
1018.3mb 68f
12:10am 6 7 mph 1018.6mb 68f
12:00am 6 7 mph 1018.6mb 68f
Mon 07/21 11:50pm 7
mph
1018.6mb 68f
11:40pm 6 7 mph 1018.6mb 67f
11:30pm 6 7 mph 1018.6mb 67f
11:20pm 7 8 mph 1018.6mb 68f
11:10pm 8 9 mph 1018.6mb 69f
11:00pm 9
mph
1018.6mb 69f
10:50pm 9
mph
1018.6mb 68f
10:40pm 7 8 mph 1019mb 67f
10:30pm 7 9 mph 1018.6mb 66f
10:20pm 7 8 mph 1019mb 66f
10:10pm 8 9 mph 1019mb 66f
10:00pm 7 8 mph 1019mb 66f
9:50pm 8 10 mph 1019mb 66f
9:40pm 10
mph
1018.6mb 67f
9:30pm 9 10 mph 1019mb 67f
9:20pm 10
mph
1018.6mb 67f
9:10pm 9 10 mph 1018.6mb 67f
9:00pm 9 11 mph 1018.6mb 67f
8:50pm 11
mph
1018.6mb 68f
8:40pm 11
mph
1018.6mb 68f
8:30pm 10 11 mph 1018.6mb 68f
8:20pm 11 13 mph 1018.6mb 68f
8:10pm 13 14 mph 1018.6mb 69f
8:00pm 13 15 mph 1018.6mb 69f
7:50pm 14 15 mph 1018.6mb 69f
7:40pm 14 15 mph 1018.3mb 69f
7:30pm 11 14 mph 1018.3mb 69f
7:20pm 10 13 mph 1018.3mb 69f
7:10pm 10 11 mph 1018.3mb 70f
7:00pm 9 11 mph 1018.3mb 70f
6:50pm 10 11 mph 1018.3mb 71f
6:40pm 9 11 mph 1018.6mb 71f
6:30pm 9 10 mph 1018.3mb 72f
6:20pm 8 9 mph 1018.3mb 72f
6:10pm 8 13 mph 1018.3mb 72f
6:00pm 8 11 mph 1018.6mb 75f
5:50pm 9 11 mph 1018.6mb 76f
5:40pm 8 10 mph 1018.6mb 74f
5:30pm 5 7 mph 1018.6mb 74f
5:20pm 5 9 mph 1018.6mb 75f
5:10pm 9 13 mph 1018.6mb 76f
5:00pm 7
mph
1018.6mb 75f
4:50pm 6 8 mph 1018.6mb 76f
4:40pm 5 9 mph 1018.6mb 75f
4:30pm 8 10 mph 1018.6mb 74f
4:20pm 7 10 mph 1018.6mb 76f
4:10pm 9 11 mph 1019mb 76f
4:00pm 8 9 mph 1019mb 76f
3:50pm 7 8 mph 1019mb 73f
3:40pm 7
mph
1019mb 73f
3:30pm 6 7 mph 1019mb 73f
3:20pm 3 7 mph 1019mb 73f
3:10pm 5 8 mph 1019mb 73f
3:00pm 6 9 mph 1019.3mb 74f
2:50pm 7 15 mph 1019.3mb 74f
2:40pm 15 16 mph 1019mb 75f
2:30pm 9 11 mph 1019.3mb 74f
2:20pm 11 15 mph 1019.3mb 75f
2:10pm 14 16 mph 1019.3mb 75f
2:00pm 15 17 mph 1019.3mb 75f
1:50pm 15 16 mph 1019.3mb 75f
1:40pm 14 16 mph 1019.3mb 75f
1:30pm 14 17 mph 1019.3mb 75f
1:20pm 15 17 mph 1019.3mb 74f
1:10pm 15 17 mph 1019.3mb 74f
1:00pm 16 17 mph 1019.3mb 74f
12:50pm 16 17 mph 1019.6mb 74f
12:40pm 15 16 mph 1019.6mb 74f
12:30pm 15 16 mph 1019.6mb 74f
12:20pm 14 16 mph 1019.6mb 74f
12:10pm 15 16 mph 1019.6mb 74f
12:00pm 15
mph
1019.6mb 74f
11:50am 14 16 mph 1019.6mb 74f
11:40am 15 16 mph 1019.6mb 74f
11:30am 16
mph
1019.6mb 73f
11:20am 16 17 mph 1019.6mb 73f
11:10am 14 15 mph 1020mb 73f
11:00am 13 14 mph 1020mb 73f
10:50am 13 14 mph 1020mb 73f
10:40am 11 13 mph 1020mb 73f
10:30am 11 13 mph 1020mb 73f
10:20am 11
mph
1020.3mb 73f
10:10am 10 11 mph 1020mb 72f
10:00am 11
mph
1020mb 72f
9:50am 10 13 mph 1020mb 72f
9:40am 11 13 mph 1020mb 72f
9:30am 11
mph
1020.3mb 71f
9:20am 10 11 mph 1020.3mb 72f
9:10am 11 13 mph 1020.3mb 71f
9:00am 11 13 mph 1020.3mb 71f
8:50am 10
mph
1020.3mb 71f
8:40am 9
mph
1020.3mb 71f
8:30am 7 8 mph 1020.7mb 71f
8:20am 7
mph
1020.7mb 72f
8:10am 6 7 mph 1020.7mb 73f
8:00am 5 6 mph 1020.7mb 74f
7:50am 5 6 mph 1020.7mb 72f
7:40am 6
mph
1020.7mb 72f
7:30am 5 7 mph 1020.3mb 71f
7:20am 6
mph
1020.7mb 70f
7:10am 3
mph
1020.7mb 71f
7:00am 2 3 mph 1020.3mb 70f
6:50am 2 5 mph 1020.3mb 69f
6:40am 3 6 mph 1020.3mb 68f
6:30am 5 6 mph 1020.3mb 68f
6:20am 3 5 mph 1020.3mb 67f
6:10am 5 6 mph 1020mb 67f
6:00am 3 6 mph 1020mb 66f
5:50am 5
mph
1020mb 66f
5:40am 3 5 mph 1020mb 66f
5:30am 5
mph
1019.6mb 66f
5:20am 2 5 mph 1019.6mb 67f
5:10am 3
mph
1019.6mb 66f
5:00am 1 2 mph 1019.3mb 66f
4:50am 2 3 mph 1019.3mb 67f
4:40am 2 5 mph 1019.3mb 67f
4:30am 5
mph
1019.3mb 67f
4:20am 3 6 mph 1019mb 67f
4:10am 2 5 mph 1019mb 67f
4:00am 3 5 mph 1019mb 67f
3:50am 2
mph
1018.6mb 67f
3:40am  -  2 mph 1018.6mb 67f
3:30am 2 3 mph 1018.3mb 67f
3:20am 2
mph
1018.3mb 67f
3:10am 2 3 mph 1018.3mb 67f
3:00am 3
mph
1018.3mb 66f
2:50am 3 5 mph 1018.3mb 66f
2:40am 5
mph
1017.9mb 66f
2:30am 5
mph
1017.9mb 66f
2:20am 3 5 mph 1018.3mb 66f
2:10am 5 6 mph 1018.3mb 66f
2:00am 5 6 mph 1018.3mb 66f
1:50am 6 7 mph 1018.3mb 67f
1:40am 7
mph
1017.9mb 66f
1:30am 6 7 mph 1017.9mb 66f
1:20am 6
mph
1017.9mb 67f
1:10am 5 6 mph 1018.3mb 67f
1:00am 6
mph
1018.3mb 67f
12:50am 6
mph
1018.3mb 67f
12:40am 6
mph
1017.9mb 67f
12:30am 6
mph
1017.9mb 67f
12:20am 6
mph
1018.3mb 67f
12:10am 5 7 mph 1018.3mb 67f
12:00am 7
mph
1017.9mb 67f
Sun 07/20 11:50pm 6 7 mph 1018.3mb 67f
11:40pm 7
mph
1018.3mb 68f
11:30pm 7
mph
1018.3mb 69f
11:20pm 7
mph
1018.3mb 69f
11:10pm 6
mph
1018.3mb 69f
11:00pm 5
mph
1018.3mb 68f
10:50pm 3 5 mph 1018.3mb 68f
10:40pm 3 5 mph 1018.3mb 68f
10:30pm 3
mph
1018.3mb 68f
10:20pm 3
mph
1018.3mb 68f
10:10pm 2 3 mph 1018.3mb 69f
10:00pm 3
mph
1018.3mb 69f
9:50pm 3
mph
1018.3mb 69f
9:40pm 3
mph
1018.3mb 69f
9:30pm 3 6 mph 1018.3mb 69f
9:20pm 6
mph
1017.9mb 69f
9:10pm 5
mph
1017.9mb 69f
9:00pm 5
mph
1017.9mb 70f
8:50pm 5 6 mph 1017.9mb 70f
8:40pm 5 6 mph 1017.9mb 70f
8:30pm 5 6 mph 1017.6mb 70f
8:20pm 6 7 mph 1017.3mb 69f
8:10pm 7
mph
1017.3mb 69f
8:00pm 7
mph
1017.3mb 69f
7:50pm 6 7 mph 1017.3mb 69f
7:40pm 6 7 mph 1017.3mb 70f
7:30pm 6 8 mph 1017.3mb 70f
7:20pm 6 7 mph 1017.3mb 70f
7:10pm 7
mph
1017.3mb 70f
7:00pm 7 8 mph 1017.3mb 71f
6:50pm 6 7 mph 1017.3mb 71f
6:40pm 6 8 mph 1017.6mb 72f
6:30pm 5 7 mph 1017.3mb 73f
6:20pm 3 7 mph 1017.3mb 73f
6:10pm 5 9 mph 1017.3mb 74f
6:00pm 6 7 mph 1017.3mb 74f
5:50pm 5 8 mph 1017.3mb 73f
5:40pm 6 9 mph 1017.3mb 74f
5:30pm 6 7 mph 1017.3mb 75f
5:20pm 6 8 mph 1017.3mb 75f
5:10pm 5 7 mph 1017.3mb 75f
5:00pm 5 6 mph 1017.6mb 76f
4:50pm 3 6 mph 1017.6mb 76f
4:40pm 3 5 mph 1017.6mb 76f
4:30pm 5 6 mph 1017.6mb 74f
4:20pm 5 8 mph 1017.6mb 74f
4:10pm 8
mph
1017.6mb 75f
4:00pm 6 7 mph 1017.6mb 75f
3:50pm 7 9 mph 1017.9mb 75f
3:40pm 8 10 mph 1017.9mb 75f
3:30pm 9 10 mph 1017.9mb 75f
3:20pm 8 9 mph 1017.9mb 76f
3:10pm 7 9 mph 1017.9mb 75f
3:00pm 8 9 mph 1017.9mb 76f
2:50pm 8 10 mph 1018.3mb 75f
2:40pm 8 10 mph 1018.3mb 75f
2:30pm 8 10 mph 1018.3mb 75f
2:20pm 9 11 mph 1018.3mb 74f
2:10pm 9 11 mph 1018.3mb 74f
2:00pm 10 11 mph 1018.3mb 75f
1:50pm 10 13 mph 1018.3mb 75f
1:40pm 10 13 mph 1018.3mb 74f
1:30pm 10 13 mph 1018.3mb 73f
1:20pm 11 13 mph 1018.6mb 74f
1:10pm 11 13 mph 1018.6mb 74f
1:00pm 11 14 mph 1018.6mb 73f
12:50pm 13 15 mph 1018.6mb 73f
12:40pm 11 13 mph 1018.6mb 73f
12:30pm 10 13 mph 1018.6mb 73f
12:20pm 11 13 mph 1018.6mb 72f
12:10pm 10 13 mph 1018.6mb 71f
12:00pm 11 13 mph 1018.6mb 72f
11:50am 11 13 mph 1018.6mb 73f
11:40am 11 13 mph 1019mb 73f
11:30am 10 11 mph 1019mb 74f
11:20am 9
mph
1019mb 75f
11:10am 9 13 mph 1019mb 76f
11:00am 8 9 mph 1019mb 76f
10:50am 6 7 mph 1019.3mb 76f
10:40am 5 7 mph 1019.3mb 75f
10:30am 6 7 mph 1019.3mb 75f
10:20am 6 8 mph 1019.3mb 74f
10:10am 7 10 mph 1019.3mb 74f
10:00am 7 9 mph 1019.3mb 74f
9:50am 6 7 mph 1019.3mb 73f
9:40am 6
mph
1019.3mb 73f
9:30am 6 7 mph 1019.6mb 74f
9:20am 6 7 mph 1019.6mb 74f
9:10am 6 7 mph 1019.6mb 74f
9:00am 6 7 mph 1019.6mb 73f
8:50am 6
mph
1019.3mb 73f
8:40am 3 5 mph 1019.6mb 71f
8:30am 3
mph
1019.6mb 72f
8:20am 3
mph
1019.6mb 72f
8:10am 3
mph
1019.6mb 73f
8:00am 1 3 mph 1019.6mb 73f
7:50am  -  mph 1019.6mb 74f
7:40am  -  1 mph 1019.3mb 71f
7:30am  -  2 mph 1019.6mb 69f
7:20am 2 3 mph 1019.3mb 67f
7:10am 3 5 mph 1019.3mb 67f
7:00am  -  3 mph 1019.3mb 67f
6:50am  -  mph 1019mb 66f
6:40am  -  mph 1019mb 67f
6:30am  -  mph 1019mb 69f
6:20am  -  mph 1019mb 66f
6:10am  -  mph 1018.6mb 65f
6:00am  -  mph 1018.6mb 65f
5:50am  -  mph 1018.6mb 65f
5:40am  -  3 mph 1018.3mb 65f
5:30am 3 5 mph 1018.3mb 65f
5:20am 5 6 mph 1018.3mb 65f
5:10am 2 5 mph 1018.3mb 65f
5:00am 5 6 mph 1018.3mb 65f
4:50am 3 5 mph 1018.3mb 65f
4:40am 2 3 mph 1017.9mb 65f
4:30am 1 2 mph 1017.9mb 65f
4:20am 3
mph
1017.9mb 65f
4:10am 3 6 mph 1017.9mb 65f
4:00am 5
mph
1017.9mb 65f
3:50am 3
mph
1017.9mb 65f
3:40am 5 6 mph 1017.9mb 65f
3:30am 3
mph
1017.9mb 66f
3:20am 3 7 mph 1017.9mb 66f
3:10am 6 7 mph 1017.9mb 66f
3:00am 3
mph
1017.9mb 66f
2:50am 3
mph
1017.9mb 66f
2:40am 3
mph
1017.9mb 66f
2:30am 2
mph
1017.9mb 66f
2:20am 2 3 mph 1017.9mb 67f
2:10am 3
mph
1017.9mb 67f
2:00am 2 3 mph 1017.9mb 66f
1:50am 3 5 mph 1018.3mb 66f
1:40am 3
mph
1017.9mb 67f
1:30am 3 5 mph 1018.3mb 67f
1:20am 5
mph
1018.3mb 67f
1:10am 5
mph
1018.3mb 67f
1:00am 3
mph
1018.3mb 67f
12:50am 3
mph
1018.3mb 67f
12:40am 3 5 mph 1018.3mb 67f
12:30am 5
mph
1018.3mb 68f
12:20am 3
mph
1018.3mb 68f
12:10am 3
mph
1018.3mb 68f
12:00am 3
mph
1018.3mb 68f
Sat 07/19 11:50pm 3 5 mph 1018.3mb 68f
11:40pm 3 5 mph 1018.6mb 68f
11:30pm 5
mph
1018.6mb 68f
11:20pm 5 6 mph 1018.3mb 68f
11:10pm 6
mph
1018.3mb 68f
11:00pm 6
mph
1018.3mb 68f
10:50pm 5
mph
1018.3mb 68f
10:40pm 5
mph
1018.3mb 68f
10:30pm 3 5 mph 1018.3mb 68f
10:20pm  -  mph 1018.3mb 67f
10:10pm  -  mph 1018.3mb 67f
10:00pm  -  mph 1018.3mb 67f
9:50pm  -  mph 1018.3mb 68f
9:40pm  -  3 mph 1018.3mb 68f
9:30pm 3
mph
1018.3mb 68f
9:20pm 3 5 mph 1018.3mb 68f
9:10pm 3 5 mph 1018.3mb 68f
9:00pm 3
mph
1018.3mb 68f